sensor_id;sensor_type;location;lat;lon;timestamp;P1;durP1;ratioP1;P2;durP2;ratioP2
19671;SDS011;9983;51.114;13.788;2023-06-14T00:03:17;3.45;;;2.67;;
19671;SDS011;9983;51.114;13.788;2023-06-14T00:08:18;4.40;;;2.47;;
19671;SDS011;9983;51.114;13.788;2023-06-14T00:13:18;2.45;;;2.25;;
19671;SDS011;9983;51.114;13.788;2023-06-14T00:18:19;2.92;;;2.30;;
19671;SDS011;9983;51.114;13.788;2023-06-14T00:23:19;3.05;;;2.75;;
19671;SDS011;9983;51.114;13.788;2023-06-14T00:28:20;4.75;;;2.55;;
19671;SDS011;9983;51.114;13.788;2023-06-14T00:33:20;2.35;;;2.20;;
19671;SDS011;9983;51.114;13.788;2023-06-14T00:38:21;3.70;;;2.50;;
19671;SDS011;9983;51.114;13.788;2023-06-14T00:43:21;2.60;;;2.40;;
19671;SDS011;9983;51.114;13.788;2023-06-14T00:48:21;3.85;;;2.65;;
19671;SDS011;9983;51.114;13.788;2023-06-14T00:53:23;4.20;;;2.67;;
19671;SDS011;9983;51.114;13.788;2023-06-14T00:58:25;2.60;;;2.40;;
19671;SDS011;9983;51.114;13.788;2023-06-14T01:03:26;3.05;;;2.85;;
19671;SDS011;9983;51.114;13.788;2023-06-14T01:08:36;2.92;;;2.63;;
19671;SDS011;9983;51.114;13.788;2023-06-14T01:13:56;2.42;;;2.22;;
19671;SDS011;9983;51.114;13.788;2023-06-14T01:18:59;6.55;;;2.67;;
19671;SDS011;9983;51.114;13.788;2023-06-14T01:24:02;4.03;;;2.47;;
19671;SDS011;9983;51.114;13.788;2023-06-14T01:29:03;4.03;;;2.50;;
19671;SDS011;9983;51.114;13.788;2023-06-14T01:34:03;2.72;;;2.53;;
19671;SDS011;9983;51.114;13.788;2023-06-14T01:39:04;3.47;;;2.88;;
19671;SDS011;9983;51.114;13.788;2023-06-14T01:44:05;2.80;;;2.60;;
19671;SDS011;9983;51.114;13.788;2023-06-14T01:49:07;2.92;;;2.72;;
19671;SDS011;9983;51.114;13.788;2023-06-14T01:54:08;2.65;;;2.45;;
19671;SDS011;9983;51.114;13.788;2023-06-14T01:59:08;2.83;;;2.53;;
19671;SDS011;9983;51.114;13.788;2023-06-14T02:04:08;2.72;;;2.53;;
19671;SDS011;9983;51.114;13.788;2023-06-14T02:09:08;5.63;;;3.20;;
19671;SDS011;9983;51.114;13.788;2023-06-14T02:14:09;3.67;;;3.03;;
19671;SDS011;9983;51.114;13.788;2023-06-14T02:19:11;2.90;;;2.53;;
19671;SDS011;9983;51.114;13.788;2023-06-14T02:24:12;2.63;;;2.42;;
19671;SDS011;9983;51.114;13.788;2023-06-14T02:29:12;2.75;;;2.55;;
19671;SDS011;9983;51.114;13.788;2023-06-14T02:34:15;2.72;;;2.53;;
19671;SDS011;9983;51.114;13.788;2023-06-14T02:39:16;4.05;;;2.72;;
19671;SDS011;9983;51.114;13.788;2023-06-14T02:44:18;3.25;;;2.67;;
19671;SDS011;9983;51.114;13.788;2023-06-14T02:49:19;3.85;;;2.63;;
19671;SDS011;9983;51.114;13.788;2023-06-14T02:54:19;5.80;;;2.90;;
19671;SDS011;9983;51.114;13.788;2023-06-14T02:59:19;2.92;;;2.65;;
19671;SDS011;9983;51.114;13.788;2023-06-14T03:04:21;2.90;;;2.70;;
19671;SDS011;9983;51.114;13.788;2023-06-14T03:09:22;2.53;;;2.33;;
19671;SDS011;9983;51.114;13.788;2023-06-14T03:14:22;3.08;;;2.83;;
19671;SDS011;9983;51.114;13.788;2023-06-14T03:19:23;4.20;;;2.90;;
19671;SDS011;9983;51.114;13.788;2023-06-14T03:24:24;3.97;;;2.75;;
19671;SDS011;9983;51.114;13.788;2023-06-14T03:29:27;3.10;;;2.80;;
19671;SDS011;9983;51.114;13.788;2023-06-14T03:34:27;4.20;;;2.70;;
19671;SDS011;9983;51.114;13.788;2023-06-14T03:39:27;2.85;;;2.55;;
19671;SDS011;9983;51.114;13.788;2023-06-14T03:44:27;3.10;;;2.78;;
19671;SDS011;9983;51.114;13.788;2023-06-14T03:49:28;4.25;;;3.28;;
19671;SDS011;9983;51.114;13.788;2023-06-14T03:54:28;2.65;;;2.45;;
19671;SDS011;9983;51.114;13.788;2023-06-14T03:59:28;3.13;;;2.92;;
19671;SDS011;9983;51.114;13.788;2023-06-14T04:04:28;2.70;;;2.50;;
19671;SDS011;9983;51.114;13.788;2023-06-14T04:09:29;3.92;;;2.67;;
19671;SDS011;9983;51.114;13.788;2023-06-14T04:14:29;3.80;;;2.70;;
19671;SDS011;9983;51.114;13.788;2023-06-14T04:19:30;3.13;;;2.85;;
19671;SDS011;9983;51.114;13.788;2023-06-14T04:24:30;3.22;;;2.92;;
19671;SDS011;9983;51.114;13.788;2023-06-14T04:29:32;3.28;;;3.03;;
19671;SDS011;9983;51.114;13.788;2023-06-14T04:34:32;3.85;;;2.97;;
19671;SDS011;9983;51.114;13.788;2023-06-14T04:39:33;4.32;;;2.60;;
19671;SDS011;9983;51.114;13.788;2023-06-14T04:44:34;2.85;;;2.65;;
19671;SDS011;9983;51.114;13.788;2023-06-14T04:49:34;2.75;;;2.55;;
19671;SDS011;9983;51.114;13.788;2023-06-14T04:54:34;3.37;;;3.07;;
19671;SDS011;9983;51.114;13.788;2023-06-14T04:59:37;4.57;;;4.20;;
19671;SDS011;9983;51.114;13.788;2023-06-14T05:04:37;5.18;;;4.68;;
19671;SDS011;9983;51.114;13.788;2023-06-14T05:09:39;3.83;;;3.42;;
19671;SDS011;9983;51.114;13.788;2023-06-14T05:14:39;4.07;;;3.65;;
19671;SDS011;9983;51.114;13.788;2023-06-14T05:19:40;4.75;;;4.35;;
19671;SDS011;9983;51.114;13.788;2023-06-14T05:24:40;4.97;;;4.50;;
19671;SDS011;9983;51.114;13.788;2023-06-14T05:29:42;4.47;;;4.07;;
19671;SDS011;9983;51.114;13.788;2023-06-14T05:34:42;5.32;;;4.53;;
19671;SDS011;9983;51.114;13.788;2023-06-14T05:39:43;4.53;;;4.13;;
19671;SDS011;9983;51.114;13.788;2023-06-14T05:44:43;4.53;;;4.13;;
19671;SDS011;9983;51.114;13.788;2023-06-14T05:49:43;4.60;;;4.20;;
19671;SDS011;9983;51.114;13.788;2023-06-14T05:54:43;4.80;;;4.30;;
19671;SDS011;9983;51.114;13.788;2023-06-14T05:59:44;5.50;;;4.82;;
19671;SDS011;9983;51.114;13.788;2023-06-14T06:04:44;5.15;;;4.65;;
19671;SDS011;9983;51.114;13.788;2023-06-14T06:09:45;5.00;;;4.38;;
19671;SDS011;9983;51.114;13.788;2023-06-14T06:14:45;6.07;;;4.00;;
19671;SDS011;9983;51.114;13.788;2023-06-14T06:19:45;5.57;;;4.10;;
19671;SDS011;9983;51.114;13.788;2023-06-14T06:24:45;4.82;;;4.35;;
19671;SDS011;9983;51.114;13.788;2023-06-14T06:29:46;4.35;;;3.90;;
19671;SDS011;9983;51.114;13.788;2023-06-14T06:34:48;4.38;;;3.97;;
19671;SDS011;9983;51.114;13.788;2023-06-14T06:39:48;4.03;;;3.72;;
19671;SDS011;9983;51.114;13.788;2023-06-14T06:44:48;4.18;;;3.88;;
19671;SDS011;9983;51.114;13.788;2023-06-14T06:49:49;4.43;;;3.73;;
19671;SDS011;9983;51.114;13.788;2023-06-14T06:54:49;4.30;;;3.70;;
19671;SDS011;9983;51.114;13.788;2023-06-14T06:59:50;3.80;;;3.50;;
19671;SDS011;9983;51.114;13.788;2023-06-14T07:04:50;4.25;;;3.75;;
19671;SDS011;9983;51.114;13.788;2023-06-14T07:09:51;4.03;;;3.63;;
19671;SDS011;9983;51.114;13.788;2023-06-14T07:14:52;3.97;;;3.67;;
19671;SDS011;9983;51.114;13.788;2023-06-14T07:19:52;5.28;;;3.55;;
19671;SDS011;9983;51.114;13.788;2023-06-14T07:24:53;4.13;;;3.78;;
19671;SDS011;9983;51.114;13.788;2023-06-14T07:29:53;3.38;;;3.08;;
19671;SDS011;9983;51.114;13.788;2023-06-14T07:34:53;3.38;;;3.08;;
19671;SDS011;9983;51.114;13.788;2023-06-14T07:39:54;4.63;;;3.03;;
19671;SDS011;9983;51.114;13.788;2023-06-14T07:44:54;3.60;;;2.97;;
19671;SDS011;9983;51.114;13.788;2023-06-14T07:49:54;3.20;;;2.70;;
19671;SDS011;9983;51.114;13.788;2023-06-14T07:54:55;3.10;;;2.50;;
19671;SDS011;9983;51.114;13.788;2023-06-14T07:59:55;4.13;;;2.47;;
19671;SDS011;9983;51.114;13.788;2023-06-14T08:04:55;2.42;;;2.28;;
19671;SDS011;9983;51.114;13.788;2023-06-14T08:09:56;3.67;;;2.90;;
19671;SDS011;9983;51.114;13.788;2023-06-14T08:14:56;5.95;;;2.38;;
19671;SDS011;9983;51.114;13.788;2023-06-14T08:19:56;2.35;;;2.15;;
19671;SDS011;9983;51.114;13.788;2023-06-14T08:24:57;2.45;;;2.30;;
19671;SDS011;9983;51.114;13.788;2023-06-14T08:29:57;4.80;;;2.58;;
19671;SDS011;9983;51.114;13.788;2023-06-14T08:34:57;2.40;;;2.30;;
19671;SDS011;9983;51.114;13.788;2023-06-14T08:39:58;2.80;;;2.60;;
19671;SDS011;9983;51.114;13.788;2023-06-14T08:44:58;2.97;;;2.60;;
19671;SDS011;9983;51.114;13.788;2023-06-14T08:49:59;3.30;;;3.00;;
19671;SDS011;9983;51.114;13.788;2023-06-14T08:54:59;3.58;;;2.75;;
19671;SDS011;9983;51.114;13.788;2023-06-14T09:00:02;2.90;;;2.70;;
19671;SDS011;9983;51.114;13.788;2023-06-14T09:05:10;3.35;;;2.70;;
19671;SDS011;9983;51.114;13.788;2023-06-14T09:10:14;2.88;;;2.67;;
19671;SDS011;9983;51.114;13.788;2023-06-14T09:15:15;3.25;;;3.00;;
19671;SDS011;9983;51.114;13.788;2023-06-14T09:20:15;3.22;;;2.92;;
19671;SDS011;9983;51.114;13.788;2023-06-14T09:25:18;3.28;;;3.00;;
19671;SDS011;9983;51.114;13.788;2023-06-14T09:30:19;3.15;;;2.75;;
19671;SDS011;9983;51.114;13.788;2023-06-14T09:35:20;3.17;;;2.88;;
19671;SDS011;9983;51.114;13.788;2023-06-14T09:40:21;3.55;;;3.35;;
19671;SDS011;9983;51.114;13.788;2023-06-14T09:45:21;3.70;;;3.40;;
19671;SDS011;9983;51.114;13.788;2023-06-14T09:50:22;5.07;;;3.40;;
19671;SDS011;9983;51.114;13.788;2023-06-14T09:55:22;3.00;;;2.80;;
19671;SDS011;9983;51.114;13.788;2023-06-14T10:00:26;2.83;;;2.63;;
19671;SDS011;9983;51.114;13.788;2023-06-14T10:05:27;3.78;;;2.90;;
19671;SDS011;9983;51.114;13.788;2023-06-14T10:10:28;3.40;;;3.10;;
19671;SDS011;9983;51.114;13.788;2023-06-14T10:15:38;2.78;;;2.50;;
19671;SDS011;9983;51.114;13.788;2023-06-14T10:21:05;3.28;;;2.97;;
19671;SDS011;9983;51.114;13.788;2023-06-14T10:26:19;3.38;;;3.10;;
19671;SDS011;9983;51.114;13.788;2023-06-14T10:31:23;3.25;;;2.95;;
19671;SDS011;9983;51.114;13.788;2023-06-14T10:36:41;3.85;;;2.97;;
19671;SDS011;9983;51.114;13.788;2023-06-14T10:41:42;2.90;;;2.58;;
19671;SDS011;9983;51.114;13.788;2023-06-14T10:46:52;3.03;;;2.78;;
19671;SDS011;9983;51.114;13.788;2023-06-14T10:51:53;4.05;;;3.40;;
19671;SDS011;9983;51.114;13.788;2023-06-14T10:56:58;5.28;;;3.63;;
19671;SDS011;9983;51.114;13.788;2023-06-14T11:12:33;4.10;;;3.80;;
19671;SDS011;9983;51.114;13.788;2023-06-14T11:17:36;3.70;;;3.50;;
19671;SDS011;9983;51.114;13.788;2023-06-14T11:22:41;3.20;;;3.00;;
19671;SDS011;9983;51.114;13.788;2023-06-14T11:27:42;2.97;;;2.72;;
19671;SDS011;9983;51.114;13.788;2023-06-14T11:32:52;4.40;;;2.88;;
19671;SDS011;9983;51.114;13.788;2023-06-14T11:37:56;3.08;;;2.88;;
19671;SDS011;9983;51.114;13.788;2023-06-14T11:43:00;4.93;;;3.13;;
19671;SDS011;9983;51.114;13.788;2023-06-14T11:48:02;3.17;;;2.90;;
19671;SDS011;9983;51.114;13.788;2023-06-14T11:53:02;3.10;;;2.80;;
19671;SDS011;9983;51.114;13.788;2023-06-14T11:58:07;3.25;;;3.05;;
19671;SDS011;9983;51.114;13.788;2023-06-14T12:03:07;3.13;;;2.92;;
19671;SDS011;9983;51.114;13.788;2023-06-14T12:08:07;3.17;;;2.97;;
19671;SDS011;9983;51.114;13.788;2023-06-14T12:13:08;3.60;;;3.30;;
19671;SDS011;9983;51.114;13.788;2023-06-14T12:18:08;4.47;;;4.07;;
19671;SDS011;9983;51.114;13.788;2023-06-14T12:23:11;4.50;;;4.10;;
19671;SDS011;9983;51.114;13.788;2023-06-14T12:28:11;3.30;;;3.00;;
19671;SDS011;9983;51.114;13.788;2023-06-14T12:33:11;3.47;;;3.13;;
19671;SDS011;9983;51.114;13.788;2023-06-14T12:38:11;3.60;;;3.03;;
19671;SDS011;9983;51.114;13.788;2023-06-14T12:43:12;3.33;;;3.03;;
19671;SDS011;9983;51.114;13.788;2023-06-14T12:48:12;3.70;;;3.05;;
19671;SDS011;9983;51.114;13.788;2023-06-14T12:53:12;3.10;;;2.90;;
19671;SDS011;9983;51.114;13.788;2023-06-14T12:58:13;3.10;;;2.90;;
19671;SDS011;9983;51.114;13.788;2023-06-14T13:03:13;3.33;;;3.03;;
19671;SDS011;9983;51.114;13.788;2023-06-14T13:08:14;3.35;;;3.10;;
19671;SDS011;9983;51.114;13.788;2023-06-14T13:13:14;3.10;;;2.90;;
19671;SDS011;9983;51.114;13.788;2023-06-14T13:18:15;3.55;;;3.25;;
19671;SDS011;9983;51.114;13.788;2023-06-14T13:23:15;3.53;;;3.22;;
19671;SDS011;9983;51.114;13.788;2023-06-14T13:28:16;2.80;;;2.70;;
19671;SDS011;9983;51.114;13.788;2023-06-14T13:33:16;3.17;;;2.87;;
19671;SDS011;9983;51.114;13.788;2023-06-14T13:38:16;3.95;;;3.22;;
19671;SDS011;9983;51.114;13.788;2023-06-14T13:43:17;3.60;;;3.10;;
19671;SDS011;9983;51.114;13.788;2023-06-14T13:48:17;3.67;;;3.30;;
19671;SDS011;9983;51.114;13.788;2023-06-14T13:53:18;3.50;;;3.20;;
19671;SDS011;9983;51.114;13.788;2023-06-14T13:58:19;3.22;;;2.67;;
19671;SDS011;9983;51.114;13.788;2023-06-14T14:03:19;3.10;;;2.90;;
19671;SDS011;9983;51.114;13.788;2023-06-14T14:08:19;2.47;;;2.30;;
19671;SDS011;9983;51.114;13.788;2023-06-14T14:13:19;2.90;;;2.63;;
19671;SDS011;9983;51.114;13.788;2023-06-14T14:18:21;4.55;;;2.88;;
19671;SDS011;9983;51.114;13.788;2023-06-14T14:23:21;3.30;;;2.75;;
19671;SDS011;9983;51.114;13.788;2023-06-14T14:28:22;2.83;;;2.60;;
19671;SDS011;9983;51.114;13.788;2023-06-14T14:33:22;3.20;;;2.90;;
19671;SDS011;9983;51.114;13.788;2023-06-14T14:38:22;2.77;;;2.60;;
19671;SDS011;9983;51.114;13.788;2023-06-14T14:43:23;2.55;;;2.35;;
19671;SDS011;9983;51.114;13.788;2023-06-14T14:48:23;2.65;;;2.53;;
19671;SDS011;9983;51.114;13.788;2023-06-14T14:53:23;2.92;;;2.50;;
19671;SDS011;9983;51.114;13.788;2023-06-14T14:58:23;3.60;;;2.75;;
19671;SDS011;9983;51.114;13.788;2023-06-14T15:03:24;3.20;;;2.92;;
19671;SDS011;9983;51.114;13.788;2023-06-14T15:08:24;2.90;;;2.70;;
19671;SDS011;9983;51.114;13.788;2023-06-14T15:13:24;3.15;;;2.95;;
19671;SDS011;9983;51.114;13.788;2023-06-14T15:18:24;3.53;;;3.22;;
19671;SDS011;9983;51.114;13.788;2023-06-14T15:23:25;3.72;;;3.10;;
19671;SDS011;9983;51.114;13.788;2023-06-14T15:28:25;3.75;;;3.35;;
19671;SDS011;9983;51.114;13.788;2023-06-14T15:33:28;3.17;;;2.97;;
19671;SDS011;9983;51.114;13.788;2023-06-14T15:38:28;3.38;;;3.17;;
19671;SDS011;9983;51.114;13.788;2023-06-14T15:43:29;3.30;;;3.10;;
19671;SDS011;9983;51.114;13.788;2023-06-14T15:48:29;3.20;;;3.00;;
19671;SDS011;9983;51.114;13.788;2023-06-14T15:53:30;3.70;;;3.20;;
19671;SDS011;9983;51.114;13.788;2023-06-14T15:58:30;3.42;;;3.20;;
19671;SDS011;9983;51.114;13.788;2023-06-14T16:03:30;4.40;;;3.55;;
19671;SDS011;9983;51.114;13.788;2023-06-14T16:08:30;3.35;;;3.03;;
19671;SDS011;9983;51.114;13.788;2023-06-14T16:13:31;3.40;;;3.10;;
19671;SDS011;9983;51.114;13.788;2023-06-14T16:18:31;4.03;;;3.50;;
19671;SDS011;9983;51.114;13.788;2023-06-14T16:23:32;3.85;;;3.60;;
19671;SDS011;9983;51.114;13.788;2023-06-14T16:28:32;4.13;;;3.83;;
19671;SDS011;9983;51.114;13.788;2023-06-14T16:33:32;4.20;;;3.90;;
19671;SDS011;9983;51.114;13.788;2023-06-14T16:38:33;4.50;;;4.18;;
19671;SDS011;9983;51.114;13.788;2023-06-14T16:43:33;4.15;;;3.85;;
19671;SDS011;9983;51.114;13.788;2023-06-14T16:48:34;4.05;;;3.85;;
19671;SDS011;9983;51.114;13.788;2023-06-14T16:53:34;4.10;;;3.80;;
19671;SDS011;9983;51.114;13.788;2023-06-14T16:58:35;4.03;;;3.72;;
19671;SDS011;9983;51.114;13.788;2023-06-14T17:03:35;4.65;;;3.78;;
19671;SDS011;9983;51.114;13.788;2023-06-14T17:08:35;3.85;;;3.55;;
19671;SDS011;9983;51.114;13.788;2023-06-14T17:13:35;4.72;;;3.53;;
19671;SDS011;9983;51.114;13.788;2023-06-14T17:18:36;3.90;;;3.65;;
19671;SDS011;9983;51.114;13.788;2023-06-14T17:23:36;4.13;;;3.83;;
19671;SDS011;9983;51.114;13.788;2023-06-14T17:28:37;4.63;;;3.90;;
19671;SDS011;9983;51.114;13.788;2023-06-14T17:33:38;4.13;;;3.83;;
19671;SDS011;9983;51.114;13.788;2023-06-14T17:38:39;6.38;;;3.85;;
19671;SDS011;9983;51.114;13.788;2023-06-14T17:43:39;4.10;;;3.80;;
19671;SDS011;9983;51.114;13.788;2023-06-14T17:48:39;4.50;;;4.10;;
19671;SDS011;9983;51.114;13.788;2023-06-14T17:53:40;3.40;;;3.10;;
19671;SDS011;9983;51.114;13.788;2023-06-14T17:58:40;3.73;;;3.43;;
19671;SDS011;9983;51.114;13.788;2023-06-14T18:03:40;3.80;;;3.50;;
19671;SDS011;9983;51.114;13.788;2023-06-14T18:08:40;3.63;;;3.33;;
19671;SDS011;9983;51.114;13.788;2023-06-14T18:13:43;4.57;;;3.40;;
19671;SDS011;9983;51.114;13.788;2023-06-14T18:18:43;3.78;;;3.55;;
19671;SDS011;9983;51.114;13.788;2023-06-14T18:23:44;3.55;;;3.25;;
19671;SDS011;9983;51.114;13.788;2023-06-14T18:28:45;3.38;;;3.08;;
19671;SDS011;9983;51.114;13.788;2023-06-14T18:33:46;3.90;;;3.58;;
19671;SDS011;9983;51.114;13.788;2023-06-14T18:38:46;3.72;;;3.42;;
19671;SDS011;9983;51.114;13.788;2023-06-14T18:43:46;4.03;;;3.60;;
19671;SDS011;9983;51.114;13.788;2023-06-14T18:48:46;3.28;;;3.08;;
19671;SDS011;9983;51.114;13.788;2023-06-14T18:53:47;3.88;;;3.47;;
19671;SDS011;9983;51.114;13.788;2023-06-14T18:58:48;5.38;;;3.50;;
19671;SDS011;9983;51.114;13.788;2023-06-14T19:03:48;4.03;;;3.58;;
19671;SDS011;9983;51.114;13.788;2023-06-14T19:08:48;3.45;;;3.20;;
19671;SDS011;9983;51.114;13.788;2023-06-14T19:13:49;3.65;;;3.10;;
19671;SDS011;9983;51.114;13.788;2023-06-14T19:18:49;4.10;;;3.45;;
19671;SDS011;9983;51.114;13.788;2023-06-14T19:23:49;4.03;;;3.63;;
19671;SDS011;9983;51.114;13.788;2023-06-14T19:28:50;3.70;;;3.40;;
19671;SDS011;9983;51.114;13.788;2023-06-14T19:33:50;3.90;;;3.60;;
19671;SDS011;9983;51.114;13.788;2023-06-14T19:38:52;4.03;;;3.72;;
19671;SDS011;9983;51.114;13.788;2023-06-14T19:43:52;4.75;;;4.30;;
19671;SDS011;9983;51.114;13.788;2023-06-14T19:48:53;5.22;;;4.07;;
19671;SDS011;9983;51.114;13.788;2023-06-14T19:53:53;4.40;;;4.00;;
19671;SDS011;9983;51.114;13.788;2023-06-14T19:58:54;5.00;;;3.83;;
19671;SDS011;9983;51.114;13.788;2023-06-14T20:03:54;3.80;;;3.50;;
19671;SDS011;9983;51.114;13.788;2023-06-14T20:08:54;6.15;;;4.22;;
19671;SDS011;9983;51.114;13.788;2023-06-14T20:13:55;4.32;;;3.92;;
19671;SDS011;9983;51.114;13.788;2023-06-14T20:18:55;4.38;;;3.92;;
19671;SDS011;9983;51.114;13.788;2023-06-14T20:23:56;4.35;;;4.05;;
19671;SDS011;9983;51.114;13.788;2023-06-14T20:28:56;4.30;;;3.88;;
19671;SDS011;9983;51.114;13.788;2023-06-14T20:33:57;4.80;;;3.97;;
19671;SDS011;9983;51.114;13.788;2023-06-14T20:38:57;4.47;;;3.92;;
19671;SDS011;9983;51.114;13.788;2023-06-14T20:43:58;4.25;;;3.95;;
19671;SDS011;9983;51.114;13.788;2023-06-14T20:49:01;4.47;;;3.85;;
19671;SDS011;9983;51.114;13.788;2023-06-14T20:54:01;4.40;;;4.00;;
19671;SDS011;9983;51.114;13.788;2023-06-14T20:59:01;4.35;;;4.05;;
19671;SDS011;9983;51.114;13.788;2023-06-14T21:04:01;5.15;;;4.65;;
19671;SDS011;9983;51.114;13.788;2023-06-14T21:09:02;4.18;;;3.88;;
19671;SDS011;9983;51.114;13.788;2023-06-14T21:14:03;4.70;;;4.30;;
19671;SDS011;9983;51.114;13.788;2023-06-14T21:19:03;4.43;;;4.03;;
19671;SDS011;9983;51.114;13.788;2023-06-14T21:24:04;4.82;;;4.43;;
19671;SDS011;9983;51.114;13.788;2023-06-14T21:29:04;4.90;;;4.50;;
19671;SDS011;9983;51.114;13.788;2023-06-14T21:34:04;4.70;;;4.30;;
19671;SDS011;9983;51.114;13.788;2023-06-14T21:39:05;5.03;;;4.28;;
19671;SDS011;9983;51.114;13.788;2023-06-14T21:44:05;5.35;;;4.75;;
19671;SDS011;9983;51.114;13.788;2023-06-14T21:49:05;4.80;;;4.40;;
19671;SDS011;9983;51.114;13.788;2023-06-14T21:54:06;5.10;;;4.60;;
19671;SDS011;9983;51.114;13.788;2023-06-14T21:59:06;4.85;;;4.45;;
19671;SDS011;9983;51.114;13.788;2023-06-14T22:04:06;5.13;;;4.38;;
19671;SDS011;9983;51.114;13.788;2023-06-14T22:09:06;4.47;;;4.07;;
19671;SDS011;9983;51.114;13.788;2023-06-14T22:14:07;5.18;;;4.30;;
19671;SDS011;9983;51.114;13.788;2023-06-14T22:19:11;5.20;;;4.80;;
19671;SDS011;9983;51.114;13.788;2023-06-14T22:24:11;6.15;;;4.75;;
19671;SDS011;9983;51.114;13.788;2023-06-14T22:29:11;5.07;;;4.68;;
19671;SDS011;9983;51.114;13.788;2023-06-14T22:34:11;4.95;;;4.55;;
19671;SDS011;9983;51.114;13.788;2023-06-14T22:39:12;4.97;;;4.50;;
19671;SDS011;9983;51.114;13.788;2023-06-14T22:44:12;4.90;;;4.40;;
19671;SDS011;9983;51.114;13.788;2023-06-14T22:49:16;4.75;;;4.35;;
19671;SDS011;9983;51.114;13.788;2023-06-14T22:54:17;4.85;;;4.32;;
19671;SDS011;9983;51.114;13.788;2023-06-14T22:59:17;5.40;;;4.90;;
19671;SDS011;9983;51.114;13.788;2023-06-14T23:04:18;6.32;;;4.57;;
19671;SDS011;9983;51.114;13.788;2023-06-14T23:09:20;5.25;;;4.80;;
19671;SDS011;9983;51.114;13.788;2023-06-14T23:14:21;5.47;;;5.00;;
19671;SDS011;9983;51.114;13.788;2023-06-14T23:19:22;4.95;;;4.55;;
19671;SDS011;9983;51.114;13.788;2023-06-14T23:24:23;4.95;;;4.55;;
19671;SDS011;9983;51.114;13.788;2023-06-14T23:29:24;5.63;;;5.13;;
19671;SDS011;9983;51.114;13.788;2023-06-14T23:34:27;5.00;;;4.60;;
19671;SDS011;9983;51.114;13.788;2023-06-14T23:39:29;5.90;;;4.60;;
19671;SDS011;9983;51.114;13.788;2023-06-14T23:44:29;5.10;;;4.70;;
19671;SDS011;9983;51.114;13.788;2023-06-14T23:49:30;5.38;;;4.88;;
19671;SDS011;9983;51.114;13.788;2023-06-14T23:54:30;5.25;;;4.85;;
19671;SDS011;9983;51.114;13.788;2023-06-14T23:59:33;5.32;;;4.82;;
